sensor_id;sensor_type;location;lat;lon;timestamp;temperature;humidity
69938;DHT22;57248;47.320;15.998;2023-03-23T00:01:29;4.43;83.01
69938;DHT22;57248;47.320;15.998;2023-03-23T00:04:08;4.40;81.95
69938;DHT22;57248;47.320;15.998;2023-03-23T00:06:40;4.40;81.97
69938;DHT22;57248;47.320;15.998;2023-03-23T00:09:13;4.42;81.97
69938;DHT22;57248;47.320;15.998;2023-03-23T00:11:46;4.33;81.27
69938;DHT22;57248;47.320;15.998;2023-03-23T00:14:19;4.29;81.68
69938;DHT22;57248;47.320;15.998;2023-03-23T00:16:53;4.29;83.20
69938;DHT22;57248;47.320;15.998;2023-03-23T00:19:26;4.20;82.01
69938;DHT22;57248;47.320;15.998;2023-03-23T00:21:58;4.23;81.86
69938;DHT22;57248;47.320;15.998;2023-03-23T00:24:32;4.16;82.01
69938;DHT22;57248;47.320;15.998;2023-03-23T00:27:05;4.23;83.07
69938;DHT22;57248;47.320;15.998;2023-03-23T00:29:31;4.15;82.99
69938;DHT22;57248;47.320;15.998;2023-03-23T00:32:03;3.99;82.40
69938;DHT22;57248;47.320;15.998;2023-03-23T00:34:35;3.95;81.70
69938;DHT22;57248;47.320;15.998;2023-03-23T00:37:07;3.96;82.00
69938;DHT22;57248;47.320;15.998;2023-03-23T00:39:39;3.96;83.00
69938;DHT22;57248;47.320;15.998;2023-03-23T00:42:17;3.91;81.99
69938;DHT22;57248;47.320;15.998;2023-03-23T00:44:50;3.89;83.39
69938;DHT22;57248;47.320;15.998;2023-03-23T00:47:22;3.89;83.16
69938;DHT22;57248;47.320;15.998;2023-03-23T00:49:56;3.89;83.58
69938;DHT22;57248;47.320;15.998;2023-03-23T00:52:28;3.82;83.37
69938;DHT22;57248;47.320;15.998;2023-03-23T00:55:00;3.82;83.17
69938;DHT22;57248;47.320;15.998;2023-03-23T00:57:32;3.70;82.90
69938;DHT22;57248;47.320;15.998;2023-03-23T01:00:18;3.71;83.51
69938;DHT22;57248;47.320;15.998;2023-03-23T01:02:53;3.51;84.27
69938;DHT22;57248;47.320;15.998;2023-03-23T01:05:25;3.54;82.97
69938;DHT22;57248;47.320;15.998;2023-03-23T01:08:04;3.61;83.70
69938;DHT22;57248;47.320;15.998;2023-03-23T01:10:36;3.57;83.96
69938;DHT22;57248;47.320;15.998;2023-03-23T01:13:10;3.48;83.67
69938;DHT22;57248;47.320;15.998;2023-03-23T01:15:42;3.38;82.72
69938;DHT22;57248;47.320;15.998;2023-03-23T01:18:14;3.31;83.37
69938;DHT22;57248;47.320;15.998;2023-03-23T01:20:46;3.24;85.19
69938;DHT22;57248;47.320;15.998;2023-03-23T01:23:19;3.28;85.55
69938;DHT22;57248;47.320;15.998;2023-03-23T01:25:51;3.17;86.15
69938;DHT22;57248;47.320;15.998;2023-03-23T01:28:26;3.20;86.22
69938;DHT22;57248;47.320;15.998;2023-03-23T01:30:52;3.19;85.03
69938;DHT22;57248;47.320;15.998;2023-03-23T01:33:24;3.20;84.92
69938;DHT22;57248;47.320;15.998;2023-03-23T01:35:57;3.20;84.64
69938;DHT22;57248;47.320;15.998;2023-03-23T01:38:29;3.14;84.25
69938;DHT22;57248;47.320;15.998;2023-03-23T01:40:56;3.22;83.87
69938;DHT22;57248;47.320;15.998;2023-03-23T01:43:28;3.19;84.26
69938;DHT22;57248;47.320;15.998;2023-03-23T01:46:00;3.19;86.08
69938;DHT22;57248;47.320;15.998;2023-03-23T01:48:37;3.10;85.78
69938;DHT22;57248;47.320;15.998;2023-03-23T01:51:12;3.09;85.94
69938;DHT22;57248;47.320;15.998;2023-03-23T01:53:55;3.07;86.21
69938;DHT22;57248;47.320;15.998;2023-03-23T01:56:34;3.03;85.75
69938;DHT22;57248;47.320;15.998;2023-03-23T01:59:09;2.97;85.14
69938;DHT22;57248;47.320;15.998;2023-03-23T02:01:57;2.89;84.57
69938;DHT22;57248;47.320;15.998;2023-03-23T02:04:33;2.89;84.08
69938;DHT22;57248;47.320;15.998;2023-03-23T02:06:59;2.93;86.43
69938;DHT22;57248;47.320;15.998;2023-03-23T02:09:31;2.95;86.60
69938;DHT22;57248;47.320;15.998;2023-03-23T02:12:04;2.91;86.83
69938;DHT22;57248;47.320;15.998;2023-03-23T02:14:37;2.78;85.53
69938;DHT22;57248;47.320;15.998;2023-03-23T02:17:18;2.64;84.57
69938;DHT22;57248;47.320;15.998;2023-03-23T02:20:35;2.65;84.59
69938;DHT22;57248;47.320;15.998;2023-03-23T02:23:28;2.61;85.85
69938;DHT22;57248;47.320;15.998;2023-03-23T02:26:35;2.69;85.49
69938;DHT22;57248;47.320;15.998;2023-03-23T02:32:16;2.61;85.80
69938;DHT22;57248;47.320;15.998;2023-03-23T02:34:55;2.61;87.16
69938;DHT22;57248;47.320;15.998;2023-03-23T02:38:02;2.66;86.56
69938;DHT22;57248;47.320;15.998;2023-03-23T02:40:40;2.62;87.96
69938;DHT22;57248;47.320;15.998;2023-03-23T02:43:15;2.62;87.64
69938;DHT22;57248;47.320;15.998;2023-03-23T02:45:51;2.65;87.35
69938;DHT22;57248;47.320;15.998;2023-03-23T02:48:28;2.54;86.68
69938;DHT22;57248;47.320;15.998;2023-03-23T02:51:02;2.62;87.34
69938;DHT22;57248;47.320;15.998;2023-03-23T02:53:37;2.52;87.46
69938;DHT22;57248;47.320;15.998;2023-03-23T02:56:12;2.54;88.26
69938;DHT22;57248;47.320;15.998;2023-03-23T02:58:52;2.49;88.12
69938;DHT22;57248;47.320;15.998;2023-03-23T03:04:13;2.33;86.73
69938;DHT22;57248;47.320;15.998;2023-03-23T03:07:00;2.34;88.67
69938;DHT22;57248;47.320;15.998;2023-03-23T03:09:52;2.48;88.24
69938;DHT22;57248;47.320;15.998;2023-03-23T03:12:34;2.51;89.62
69938;DHT22;57248;47.320;15.998;2023-03-23T03:20:30;2.56;89.83
69938;DHT22;57248;47.320;15.998;2023-03-23T03:23:04;2.58;89.38
69938;DHT22;57248;47.320;15.998;2023-03-23T03:25:43;2.56;88.55
69938;DHT22;57248;47.320;15.998;2023-03-23T03:28:28;2.54;89.36
69938;DHT22;57248;47.320;15.998;2023-03-23T03:31:03;2.59;91.47
69938;DHT22;57248;47.320;15.998;2023-03-23T03:33:36;2.59;89.67
69938;DHT22;57248;47.320;15.998;2023-03-23T03:36:18;2.46;88.56
69938;DHT22;57248;47.320;15.998;2023-03-23T03:38:51;2.38;88.58
69938;DHT22;57248;47.320;15.998;2023-03-23T03:41:24;2.35;87.53
69938;DHT22;57248;47.320;15.998;2023-03-23T03:43:49;2.37;87.34
69938;DHT22;57248;47.320;15.998;2023-03-23T03:46:21;2.34;90.29
69938;DHT22;57248;47.320;15.998;2023-03-23T03:48:53;2.33;89.78
69938;DHT22;57248;47.320;15.998;2023-03-23T03:51:26;2.40;89.18
69938;DHT22;57248;47.320;15.998;2023-03-23T03:53:59;2.34;88.51
69938;DHT22;57248;47.320;15.998;2023-03-23T03:56:31;2.35;88.81
69938;DHT22;57248;47.320;15.998;2023-03-23T03:59:32;2.34;88.74
69938;DHT22;57248;47.320;15.998;2023-03-23T04:02:27;2.25;88.26
69938;DHT22;57248;47.320;15.998;2023-03-23T04:04:59;2.20;87.78
69938;DHT22;57248;47.320;15.998;2023-03-23T04:07:34;2.10;89.55
69938;DHT22;57248;47.320;15.998;2023-03-23T04:10:10;2.25;89.68
69938;DHT22;57248;47.320;15.998;2023-03-23T04:12:44;2.41;90.63
69938;DHT22;57248;47.320;15.998;2023-03-23T04:15:36;2.20;90.06
69938;DHT22;57248;47.320;15.998;2023-03-23T04:18:08;2.24;90.83
69938;DHT22;57248;47.320;15.998;2023-03-23T04:20:42;2.21;90.05
69938;DHT22;57248;47.320;15.998;2023-03-23T04:23:20;2.06;91.49
69938;DHT22;57248;47.320;15.998;2023-03-23T04:25:53;2.02;89.65
69938;DHT22;57248;47.320;15.998;2023-03-23T04:28:34;2.09;89.50
69938;DHT22;57248;47.320;15.998;2023-03-23T04:31:25;2.13;89.24
69938;DHT22;57248;47.320;15.998;2023-03-23T04:34:11;2.03;89.18
69938;DHT22;57248;47.320;15.998;2023-03-23T04:36:47;2.04;88.29
69938;DHT22;57248;47.320;15.998;2023-03-23T04:39:25;2.03;89.29
69938;DHT22;57248;47.320;15.998;2023-03-23T04:42:02;2.14;89.47
69938;DHT22;57248;47.320;15.998;2023-03-23T04:44:44;2.17;89.32
69938;DHT22;57248;47.320;15.998;2023-03-23T04:47:35;2.21;88.83
69938;DHT22;57248;47.320;15.998;2023-03-23T04:50:21;2.15;89.56
69938;DHT22;57248;47.320;15.998;2023-03-23T04:52:57;2.11;88.64
69938;DHT22;57248;47.320;15.998;2023-03-23T04:55:35;2.13;88.79
69938;DHT22;57248;47.320;15.998;2023-03-23T04:58:12;2.14;88.08
69938;DHT22;57248;47.320;15.998;2023-03-23T05:01:12;2.03;88.45
69938;DHT22;57248;47.320;15.998;2023-03-23T05:04:12;2.07;88.63
69938;DHT22;57248;47.320;15.998;2023-03-23T05:06:59;2.20;88.62
69938;DHT22;57248;47.320;15.998;2023-03-23T05:09:35;2.28;87.98
69938;DHT22;57248;47.320;15.998;2023-03-23T05:12:10;2.34;88.82
69938;DHT22;57248;47.320;15.998;2023-03-23T05:14:51;2.41;88.92
69938;DHT22;57248;47.320;15.998;2023-03-23T05:17:25;2.54;88.65
69938;DHT22;57248;47.320;15.998;2023-03-23T05:20:01;2.66;88.78
69938;DHT22;57248;47.320;15.998;2023-03-23T05:22:41;2.73;89.90
69938;DHT22;57248;47.320;15.998;2023-03-23T05:25:21;2.79;89.25
69938;DHT22;57248;47.320;15.998;2023-03-23T05:28:04;2.91;88.74
69938;DHT22;57248;47.320;15.998;2023-03-23T05:30:50;3.09;88.31
69938;DHT22;57248;47.320;15.998;2023-03-23T05:33:27;3.19;88.18
69938;DHT22;57248;47.320;15.998;2023-03-23T05:36:20;3.22;88.46
69938;DHT22;57248;47.320;15.998;2023-03-23T05:39:28;3.77;89.90
69938;DHT22;57248;47.320;15.998;2023-03-23T05:42:33;3.78;87.42
69938;DHT22;57248;47.320;15.998;2023-03-23T05:45:11;3.81;88.04
69938;DHT22;57248;47.320;15.998;2023-03-23T05:47:45;4.09;87.49
69938;DHT22;57248;47.320;15.998;2023-03-23T05:50:20;4.22;87.28
69938;DHT22;57248;47.320;15.998;2023-03-23T05:52:51;4.32;87.11
69938;DHT22;57248;47.320;15.998;2023-03-23T05:55:26;4.57;85.96
69938;DHT22;57248;47.320;15.998;2023-03-23T05:58:06;4.71;86.69
69938;DHT22;57248;47.320;15.998;2023-03-23T06:00:42;5.01;85.18
69938;DHT22;57248;47.320;15.998;2023-03-23T06:03:23;5.18;84.45
69938;DHT22;57248;47.320;15.998;2023-03-23T06:06:12;5.47;83.66
69938;DHT22;57248;47.320;15.998;2023-03-23T06:08:58;5.71;83.74
69938;DHT22;57248;47.320;15.998;2023-03-23T06:11:42;5.89;84.09
69938;DHT22;57248;47.320;15.998;2023-03-23T06:14:35;6.24;82.41
69938;DHT22;57248;47.320;15.998;2023-03-23T06:17:08;6.34;83.96
69938;DHT22;57248;47.320;15.998;2023-03-23T06:19:39;6.45;84.82
69938;DHT22;57248;47.320;15.998;2023-03-23T06:22:15;6.62;83.59
69938;DHT22;57248;47.320;15.998;2023-03-23T06:25:14;6.84;82.87
69938;DHT22;57248;47.320;15.998;2023-03-23T06:27:47;7.04;82.36
69938;DHT22;57248;47.320;15.998;2023-03-23T06:30:19;7.21;82.87
69938;DHT22;57248;47.320;15.998;2023-03-23T06:32:53;7.47;81.79
69938;DHT22;57248;47.320;15.998;2023-03-23T06:35:50;7.56;82.75
69938;DHT22;57248;47.320;15.998;2023-03-23T06:38:43;7.75;81.99
69938;DHT22;57248;47.320;15.998;2023-03-23T06:41:20;7.83;81.03
69938;DHT22;57248;47.320;15.998;2023-03-23T06:43:52;7.96;81.49
69938;DHT22;57248;47.320;15.998;2023-03-23T06:46:29;8.26;80.70
69938;DHT22;57248;47.320;15.998;2023-03-23T06:49:16;8.53;80.41
69938;DHT22;57248;47.320;15.998;2023-03-23T06:51:54;8.68;79.76
69938;DHT22;57248;47.320;15.998;2023-03-23T06:54:29;8.93;79.06
69938;DHT22;57248;47.320;15.998;2023-03-23T06:57:03;8.95;78.93
69938;DHT22;57248;47.320;15.998;2023-03-23T06:59:35;9.22;78.39
69938;DHT22;57248;47.320;15.998;2023-03-23T07:02:14;9.27;78.14
69938;DHT22;57248;47.320;15.998;2023-03-23T07:04:50;9.48;78.52
69938;DHT22;57248;47.320;15.998;2023-03-23T07:07:24;9.69;79.29
69938;DHT22;57248;47.320;15.998;2023-03-23T07:10:10;10.16;76.94
69938;DHT22;57248;47.320;15.998;2023-03-23T07:12:43;10.45;76.42
69938;DHT22;57248;47.320;15.998;2023-03-23T07:15:16;10.67;75.50
69938;DHT22;57248;47.320;15.998;2023-03-23T07:17:51;11.35;74.33
69938;DHT22;57248;47.320;15.998;2023-03-23T07:20:38;12.30;71.94
69938;DHT22;57248;47.320;15.998;2023-03-23T07:23:10;12.64;71.33
69938;DHT22;57248;47.320;15.998;2023-03-23T07:26:04;13.08;69.82
69938;DHT22;57248;47.320;15.998;2023-03-23T07:28:43;13.15;67.13
69938;DHT22;57248;47.320;15.998;2023-03-23T07:31:35;13.06;68.50
69938;DHT22;57248;47.320;15.998;2023-03-23T07:34:08;13.64;67.14
69938;DHT22;57248;47.320;15.998;2023-03-23T07:36:48;14.21;66.14
69938;DHT22;57248;47.320;15.998;2023-03-23T07:39:22;14.98;63.11
69938;DHT22;57248;47.320;15.998;2023-03-23T07:41:58;14.83;62.07
69938;DHT22;57248;47.320;15.998;2023-03-23T07:44:41;15.24;60.54
69938;DHT22;57248;47.320;15.998;2023-03-23T07:47:13;15.49;59.32
69938;DHT22;57248;47.320;15.998;2023-03-23T07:49:47;15.30;60.22
69938;DHT22;57248;47.320;15.998;2023-03-23T07:52:35;15.47;59.87
69938;DHT22;57248;47.320;15.998;2023-03-23T07:55:10;15.37;60.50
69938;DHT22;57248;47.320;15.998;2023-03-23T07:58:08;15.47;59.73
69938;DHT22;57248;47.320;15.998;2023-03-23T08:00:40;15.37;60.88
69938;DHT22;57248;47.320;15.998;2023-03-23T08:03:12;15.44;60.64
69938;DHT22;57248;47.320;15.998;2023-03-23T08:06:08;15.37;60.81
69938;DHT22;57248;47.320;15.998;2023-03-23T08:08:55;15.51;60.59
69938;DHT22;57248;47.320;15.998;2023-03-23T08:11:47;15.17;58.77
69938;DHT22;57248;47.320;15.998;2023-03-23T08:14:38;15.47;56.99
69938;DHT22;57248;47.320;15.998;2023-03-23T08:17:36;15.89;55.70
69938;DHT22;57248;47.320;15.998;2023-03-23T08:20:26;16.24;55.88
69938;DHT22;57248;47.320;15.998;2023-03-23T08:23:17;16.37;55.79
69938;DHT22;57248;47.320;15.998;2023-03-23T08:26:08;16.86;53.07
69938;DHT22;57248;47.320;15.998;2023-03-23T08:28:56;16.51;53.16
69938;DHT22;57248;47.320;15.998;2023-03-23T08:32:01;17.02;52.67
69938;DHT22;57248;47.320;15.998;2023-03-23T08:35:00;17.69;50.96
69938;DHT22;57248;47.320;15.998;2023-03-23T08:37:51;17.70;51.13
69938;DHT22;57248;47.320;15.998;2023-03-23T08:40:43;19.30;47.92
69938;DHT22;57248;47.320;15.998;2023-03-23T08:43:47;18.94;46.78
69938;DHT22;57248;47.320;15.998;2023-03-23T08:46:38;19.50;46.97
69938;DHT22;57248;47.320;15.998;2023-03-23T08:49:10;19.42;46.41
69938;DHT22;57248;47.320;15.998;2023-03-23T08:52:02;18.82;47.13
69938;DHT22;57248;47.320;15.998;2023-03-23T08:55:00;19.59;46.56
69938;DHT22;57248;47.320;15.998;2023-03-23T08:58:12;20.34;45.78
69938;DHT22;57248;47.320;15.998;2023-03-23T09:01:23;20.19;45.58
69938;DHT22;57248;47.320;15.998;2023-03-23T09:04:16;18.55;48.92
69938;DHT22;57248;47.320;15.998;2023-03-23T09:07:21;20.36;45.91
69938;DHT22;57248;47.320;15.998;2023-03-23T09:09:52;20.48;44.60
69938;DHT22;57248;47.320;15.998;2023-03-23T09:12:24;21.23;43.13
69938;DHT22;57248;47.320;15.998;2023-03-23T09:14:56;22.53;41.56
69938;DHT22;57248;47.320;15.998;2023-03-23T09:17:28;24.19;39.31
69938;DHT22;57248;47.320;15.998;2023-03-23T09:20:03;25.52;38.32
69938;DHT22;57248;47.320;15.998;2023-03-23T09:22:44;26.79;34.81
69938;DHT22;57248;47.320;15.998;2023-03-23T09:25:20;25.36;36.62
69938;DHT22;57248;47.320;15.998;2023-03-23T09:27:55;26.06;35.75
69938;DHT22;57248;47.320;15.998;2023-03-23T09:30:30;24.77;36.68
69938;DHT22;57248;47.320;15.998;2023-03-23T09:33:04;24.60;37.28
69938;DHT22;57248;47.320;15.998;2023-03-23T09:35:37;24.71;36.42
69938;DHT22;57248;47.320;15.998;2023-03-23T09:38:10;24.86;36.68
69938;DHT22;57248;47.320;15.998;2023-03-23T09:44:09;24.01;38.08
69938;DHT22;57248;47.320;15.998;2023-03-23T09:49:28;24.08;37.73
69938;DHT22;57248;47.320;15.998;2023-03-23T09:52:08;24.20;37.08
69938;DHT22;57248;47.320;15.998;2023-03-23T09:54:51;24.88;37.55
69938;DHT22;57248;47.320;15.998;2023-03-23T09:57:41;24.50;37.26
69938;DHT22;57248;47.320;15.998;2023-03-23T10:03:10;26.61;33.59
69938;DHT22;57248;47.320;15.998;2023-03-23T10:05:48;25.39;35.44
69938;DHT22;57248;47.320;15.998;2023-03-23T10:08:24;24.61;36.60
69938;DHT22;57248;47.320;15.998;2023-03-23T10:14:12;24.59;36.90
69938;DHT22;57248;47.320;15.998;2023-03-23T10:19:49;25.49;36.90
69938;DHT22;57248;47.320;15.998;2023-03-23T10:22:30;24.84;37.84
69938;DHT22;57248;47.320;15.998;2023-03-23T10:30:30;25.17;39.34
69938;DHT22;57248;47.320;15.998;2023-03-23T10:33:11;25.85;36.55
69938;DHT22;57248;47.320;15.998;2023-03-23T10:35:47;25.77;36.94
69938;DHT22;57248;47.320;15.998;2023-03-23T10:38:26;23.69;38.37
69938;DHT22;57248;47.320;15.998;2023-03-23T10:41:14;23.84;37.94
69938;DHT22;57248;47.320;15.998;2023-03-23T10:43:48;23.41;38.61
69938;DHT22;57248;47.320;15.998;2023-03-23T10:46:49;23.57;38.51
69938;DHT22;57248;47.320;15.998;2023-03-23T10:49:30;24.10;38.79
69938;DHT22;57248;47.320;15.998;2023-03-23T10:57:43;26.44;36.02
69938;DHT22;57248;47.320;15.998;2023-03-23T11:00:26;25.87;35.57
69938;DHT22;57248;47.320;15.998;2023-03-23T11:03:05;27.42;33.04
69938;DHT22;57248;47.320;15.998;2023-03-23T11:08:28;29.65;30.23
69938;DHT22;57248;47.320;15.998;2023-03-23T11:11:16;29.45;30.65
69938;DHT22;57248;47.320;15.998;2023-03-23T11:13:49;26.98;32.56
69938;DHT22;57248;47.320;15.998;2023-03-23T11:16:50;28.69;31.36
69938;DHT22;57248;47.320;15.998;2023-03-23T11:19:24;29.48;30.80
69938;DHT22;57248;47.320;15.998;2023-03-23T11:22:07;27.82;31.85
69938;DHT22;57248;47.320;15.998;2023-03-23T11:24:45;30.17;30.79
69938;DHT22;57248;47.320;15.998;2023-03-23T11:27:18;29.75;29.42
69938;DHT22;57248;47.320;15.998;2023-03-23T11:29:55;30.36;30.31
69938;DHT22;57248;47.320;15.998;2023-03-23T11:32:29;31.98;27.98
69938;DHT22;57248;47.320;15.998;2023-03-23T11:35:07;30.31;30.50
69938;DHT22;57248;47.320;15.998;2023-03-23T11:37:50;29.15;30.33
69938;DHT22;57248;47.320;15.998;2023-03-23T11:40:26;30.57;28.50
69938;DHT22;57248;47.320;15.998;2023-03-23T11:43:14;30.19;29.93
69938;DHT22;57248;47.320;15.998;2023-03-23T11:46:03;29.38;29.35
69938;DHT22;57248;47.320;15.998;2023-03-23T11:51:50;25.66;35.02
69938;DHT22;57248;47.320;15.998;2023-03-23T11:54:32;26.33;35.80
69938;DHT22;57248;47.320;15.998;2023-03-23T11:57:10;27.87;33.47
69938;DHT22;57248;47.320;15.998;2023-03-23T11:59:43;28.62;31.00
69938;DHT22;57248;47.320;15.998;2023-03-23T12:02:42;28.00;31.41
69938;DHT22;57248;47.320;15.998;2023-03-23T12:05:37;29.11;31.03
69938;DHT22;57248;47.320;15.998;2023-03-23T12:25:43;30.96;28.02
69938;DHT22;57248;47.320;15.998;2023-03-23T12:28:25;34.02;24.29
69938;DHT22;57248;47.320;15.998;2023-03-23T12:36:43;30.60;27.89
69938;DHT22;57248;47.320;15.998;2023-03-23T12:40:22;30.41;28.24
69938;DHT22;57248;47.320;15.998;2023-03-23T12:43:19;28.26;30.12
69938;DHT22;57248;47.320;15.998;2023-03-23T12:57:35;33.13;25.40
69938;DHT22;57248;47.320;15.998;2023-03-23T13:00:23;30.00;28.05
69938;DHT22;57248;47.320;15.998;2023-03-23T13:03:17;28.62;29.73
69938;DHT22;57248;47.320;15.998;2023-03-23T13:06:04;29.66;29.50
69938;DHT22;57248;47.320;15.998;2023-03-23T13:09:04;27.36;31.28
69938;DHT22;57248;47.320;15.998;2023-03-23T13:11:39;29.76;29.25
69938;DHT22;57248;47.320;15.998;2023-03-23T13:14:42;30.56;27.62
69938;DHT22;57248;47.320;15.998;2023-03-23T13:17:34;30.36;28.66
69938;DHT22;57248;47.320;15.998;2023-03-23T13:23:16;30.36;26.98
69938;DHT22;57248;47.320;15.998;2023-03-23T13:26:26;30.14;28.56
69938;DHT22;57248;47.320;15.998;2023-03-23T13:28:55;31.77;25.64
69938;DHT22;57248;47.320;15.998;2023-03-23T13:31:35;36.48;22.88
69938;DHT22;57248;47.320;15.998;2023-03-23T13:34:28;36.64;22.64
69938;DHT22;57248;47.320;15.998;2023-03-23T13:37:30;33.94;23.63
69938;DHT22;57248;47.320;15.998;2023-03-23T13:40:25;34.53;24.27
69938;DHT22;57248;47.320;15.998;2023-03-23T13:42:59;33.63;24.75
69938;DHT22;57248;47.320;15.998;2023-03-23T13:48:19;32.25;25.73
69938;DHT22;57248;47.320;15.998;2023-03-23T13:50:58;33.12;24.84
69938;DHT22;57248;47.320;15.998;2023-03-23T13:53:44;30.78;27.44
69938;DHT22;57248;47.320;15.998;2023-03-23T13:59:49;32.00;25.93
69938;DHT22;57248;47.320;15.998;2023-03-23T14:05:27;28.72;29.32
69938;DHT22;57248;47.320;15.998;2023-03-23T14:08:12;28.39;29.43
69938;DHT22;57248;47.320;15.998;2023-03-23T14:10:59;30.17;28.69
69938;DHT22;57248;47.320;15.998;2023-03-23T14:13:43;31.28;27.58
69938;DHT22;57248;47.320;15.998;2023-03-23T14:16:23;30.98;27.39
69938;DHT22;57248;47.320;15.998;2023-03-23T14:18:58;30.03;27.69
69938;DHT22;57248;47.320;15.998;2023-03-23T14:24:15;32.62;25.14
69938;DHT22;57248;47.320;15.998;2023-03-23T14:26:48;32.03;26.52
69938;DHT22;57248;47.320;15.998;2023-03-23T14:29:21;30.16;28.28
69938;DHT22;57248;47.320;15.998;2023-03-23T14:31:56;27.42;30.76
69938;DHT22;57248;47.320;15.998;2023-03-23T14:34:31;28.89;29.11
69938;DHT22;57248;47.320;15.998;2023-03-23T14:37:03;29.52;28.02
69938;DHT22;57248;47.320;15.998;2023-03-23T14:39:36;30.34;27.92
69938;DHT22;57248;47.320;15.998;2023-03-23T14:42:17;29.83;27.89
69938;DHT22;57248;47.320;15.998;2023-03-23T14:44:50;28.46;29.07
69938;DHT22;57248;47.320;15.998;2023-03-23T14:49:59;27.49;31.59
69938;DHT22;57248;47.320;15.998;2023-03-23T14:52:36;26.37;33.75
69938;DHT22;57248;47.320;15.998;2023-03-23T14:55:16;27.12;32.79
69938;DHT22;57248;47.320;15.998;2023-03-23T14:57:49;28.60;31.60
69938;DHT22;57248;47.320;15.998;2023-03-23T15:00:50;26.12;33.61
69938;DHT22;57248;47.320;15.998;2023-03-23T15:03:23;25.34;35.22
69938;DHT22;57248;47.320;15.998;2023-03-23T15:05:58;24.43;35.72
69938;DHT22;57248;47.320;15.998;2023-03-23T15:08:34;25.82;34.72
69938;DHT22;57248;47.320;15.998;2023-03-23T15:13:53;26.43;33.89
69938;DHT22;57248;47.320;15.998;2023-03-23T15:16:32;24.97;35.76
69938;DHT22;57248;47.320;15.998;2023-03-23T15:19:18;24.26;37.28
69938;DHT22;57248;47.320;15.998;2023-03-23T15:21:56;24.43;36.48
69938;DHT22;57248;47.320;15.998;2023-03-23T15:24:38;23.43;37.99
69938;DHT22;57248;47.320;15.998;2023-03-23T15:27:24;23.51;37.79
69938;DHT22;57248;47.320;15.998;2023-03-23T15:29:59;22.70;39.14
69938;DHT22;57248;47.320;15.998;2023-03-23T15:32:40;22.51;39.71
69938;DHT22;57248;47.320;15.998;2023-03-23T15:35:16;23.06;38.84
69938;DHT22;57248;47.320;15.998;2023-03-23T15:37:57;22.59;39.68
69938;DHT22;57248;47.320;15.998;2023-03-23T15:40:33;22.21;40.67
69938;DHT22;57248;47.320;15.998;2023-03-23T15:43:17;21.86;40.83
69938;DHT22;57248;47.320;15.998;2023-03-23T15:51:31;21.54;41.86
69938;DHT22;57248;47.320;15.998;2023-03-23T15:54:10;21.11;42.61
69938;DHT22;57248;47.320;15.998;2023-03-23T15:56:44;20.78;43.02
69938;DHT22;57248;47.320;15.998;2023-03-23T15:59:16;20.98;42.66
69938;DHT22;57248;47.320;15.998;2023-03-23T16:01:55;21.28;42.67
69938;DHT22;57248;47.320;15.998;2023-03-23T16:04:28;21.05;43.03
69938;DHT22;57248;47.320;15.998;2023-03-23T16:06:55;21.11;42.71
69938;DHT22;57248;47.320;15.998;2023-03-23T16:09:27;20.85;42.83
69938;DHT22;57248;47.320;15.998;2023-03-23T16:11:59;20.90;42.96
69938;DHT22;57248;47.320;15.998;2023-03-23T16:14:31;20.71;43.25
69938;DHT22;57248;47.320;15.998;2023-03-23T16:17:03;20.60;43.79
69938;DHT22;57248;47.320;15.998;2023-03-23T16:19:36;20.39;43.98
69938;DHT22;57248;47.320;15.998;2023-03-23T16:22:09;20.41;44.30
69938;DHT22;57248;47.320;15.998;2023-03-23T16:24:34;20.23;44.37
69938;DHT22;57248;47.320;15.998;2023-03-23T16:27:08;20.05;44.68
69938;DHT22;57248;47.320;15.998;2023-03-23T16:29:41;20.10;44.89
69938;DHT22;57248;47.320;15.998;2023-03-23T16:32:12;20.24;44.58
69938;DHT22;57248;47.320;15.998;2023-03-23T16:34:44;20.09;45.06
69938;DHT22;57248;47.320;15.998;2023-03-23T16:37:17;19.92;45.34
69938;DHT22;57248;47.320;15.998;2023-03-23T16:39:49;19.90;45.50
69938;DHT22;57248;47.320;15.998;2023-03-23T16:42:14;19.82;45.89
69938;DHT22;57248;47.320;15.998;2023-03-23T16:44:47;19.39;46.62
69938;DHT22;57248;47.320;15.998;2023-03-23T16:47:14;19.42;46.63
69938;DHT22;57248;47.320;15.998;2023-03-23T16:49:48;19.38;46.95
69938;DHT22;57248;47.320;15.998;2023-03-23T16:52:22;19.27;47.74
69938;DHT22;57248;47.320;15.998;2023-03-23T16:54:53;19.31;47.16
69938;DHT22;57248;47.320;15.998;2023-03-23T16:57:26;19.17;48.76
69938;DHT22;57248;47.320;15.998;2023-03-23T17:00:12;19.00;49.30
69938;DHT22;57248;47.320;15.998;2023-03-23T17:02:47;18.31;50.88
69938;DHT22;57248;47.320;15.998;2023-03-23T17:05:20;17.78;51.69
69938;DHT22;57248;47.320;15.998;2023-03-23T17:07:54;17.53;52.23
69938;DHT22;57248;47.320;15.998;2023-03-23T17:10:30;17.27;53.34
69938;DHT22;57248;47.320;15.998;2023-03-23T17:13:04;17.30;53.05
69938;DHT22;57248;47.320;15.998;2023-03-23T17:15:29;17.04;53.79
69938;DHT22;57248;47.320;15.998;2023-03-23T17:18:03;16.78;54.27
69938;DHT22;57248;47.320;15.998;2023-03-23T17:20:36;16.61;54.36
69938;DHT22;57248;47.320;15.998;2023-03-23T17:23:08;16.65;54.33
69938;DHT22;57248;47.320;15.998;2023-03-23T17:25:40;16.43;54.79
69938;DHT22;57248;47.320;15.998;2023-03-23T17:28:13;15.99;55.95
69938;DHT22;57248;47.320;15.998;2023-03-23T17:30:46;15.34;58.19
69938;DHT22;57248;47.320;15.998;2023-03-23T17:33:19;15.26;58.68
69938;DHT22;57248;47.320;15.998;2023-03-23T17:35:50;15.18;58.83
69938;DHT22;57248;47.320;15.998;2023-03-23T17:38:23;15.42;58.04
69938;DHT22;57248;47.320;15.998;2023-03-23T17:40:59;15.12;59.14
69938;DHT22;57248;47.320;15.998;2023-03-23T17:43:31;15.14;58.93
69938;DHT22;57248;47.320;15.998;2023-03-23T17:46:04;14.94;59.56
69938;DHT22;57248;47.320;15.998;2023-03-23T17:48:39;14.93;59.49
69938;DHT22;57248;47.320;15.998;2023-03-23T17:51:11;14.80;60.37
69938;DHT22;57248;47.320;15.998;2023-03-23T17:53:43;14.81;60.30
69938;DHT22;57248;47.320;15.998;2023-03-23T17:56:16;14.69;60.79
69938;DHT22;57248;47.320;15.998;2023-03-23T17:59:03;14.73;60.29
69938;DHT22;57248;47.320;15.998;2023-03-23T18:01:43;14.50;61.16
69938;DHT22;57248;47.320;15.998;2023-03-23T18:04:15;14.42;61.06
69938;DHT22;57248;47.320;15.998;2023-03-23T18:06:48;14.33;61.02
69938;DHT22;57248;47.320;15.998;2023-03-23T18:09:20;14.24;60.93
69938;DHT22;57248;47.320;15.998;2023-03-23T18:11:45;13.95;62.13
69938;DHT22;57248;47.320;15.998;2023-03-23T18:14:19;13.87;62.24
69938;DHT22;57248;47.320;15.998;2023-03-23T18:16:45;13.98;61.47
69938;DHT22;57248;47.320;15.998;2023-03-23T18:19:18;13.53;63.52
69938;DHT22;57248;47.320;15.998;2023-03-23T18:21:50;13.63;62.69